Botrans — LMJR — position and weather

sailwx.info

Track history (hours):
 
Tides and Currents Weather Stations Pressure Air Temp Water Temp Dewpoint Dewpoint Depression Visibility Wind Speed Wind Dir Waves Ship Positions

Botrans

Last reported at 2018-Jun-18 23:58 UTC. Time now 2018-Jun-24 00:54 UTC.
Position N 62°35' E 006°08'.

Length 49 m; draft 5 m.

Type: Ship. MMSI: 258180000.

Date/timePositionNaut miles runAvg speedWind from/ knotsBaromVisibWave heightAir tempDewpointWater temp
2018-Jun-18 23:58N 62°35' E 006°08'0 0.7
2018-Jun-18 23:28N 62°35' E 006°08'4 9.0
2018-Jun-18 23:00N 62°30' E 006°09'4 7.1
2018-Jun-18 22:30N 62°27' E 006°07'4 7.4
2018-Jun-18 22:00N 62°27' E 006°15'0 0.6
2018-Jun-18 21:30N 62°26' E 006°15'0 0.0
2018-Jun-18 21:00N 62°26' E 006°15'2 4.4
2018-Jun-18 20:30N 62°27' E 006°10'4 7.6
2018-Jun-18 20:00N 62°25' E 006°03'4 8.0
2018-Jun-18 19:29N 62°21' E 006°05'0 0.0
2018-Jun-18 19:00N 62°21' E 006°05'0 0.0
2018-Jun-18 18:30N 62°21' E 006°05'0 0.0
2018-Jun-18 18:00N 62°21' E 006°05'0 0.0
2018-Jun-18 17:30N 62°21' E 006°05'0 0.0
2018-Jun-18 17:00N 62°21' E 006°05'0 0.0
2018-Jun-18 16:30N 62°21' E 006°05'0 0.0
2018-Jun-18 16:00N 62°21' E 006°05'0 0.0
2018-Jun-18 15:30N 62°21' E 006°05'0 0.0
2018-Jun-18 15:00N 62°21' E 006°05'2 4.2
2018-Jun-18 14:29N 62°23' E 006°04'4 8.0
2018-Jun-18 14:00N 62°27' E 006°02'2 3.0
2018-Jun-18 13:30N 62°28' E 006°03'4 7.3
2018-Jun-18 13:00N 62°31' E 006°09'4 3.7
2018-Jun-18 11:56N 62°35' E 006°08'0 0.0
2018-Jun-18 11:29N 62°35' E 006°08'0 0.0
2018-Jun-18 11:00N 62°35' E 006°08'0 0.0
2018-Jun-18 10:30N 62°35' E 006°08'0 0.0
2018-Jun-18 10:00N 62°35' E 006°08'0 0.0
2018-Jun-18 09:30N 62°35' E 006°08'0 0.0
2018-Jun-18 09:00N 62°35' E 006°08'0 0.0
2018-Jun-18 08:30N 62°35' E 006°08'0 0.0
2018-Jun-18 08:00N 62°35' E 006°08'0 0.0
2018-Jun-18 07:31N 62°35' E 006°08'0 0.0
2018-Jun-18 07:00N 62°35' E 006°08'0 0.0
2018-Jun-18 06:30N 62°35' E 006°08'0 0.0
2018-Jun-18 06:00N 62°35' E 006°08'0 0.0
2018-Jun-18 05:30N 62°35' E 006°08'0 0.0
2018-Jun-18 05:00N 62°35' E 006°08'0 0.0
2018-Jun-18 04:30N 62°35' E 006°08'0 0.0
2018-Jun-18 04:00N 62°35' E 006°08'0 0.0
2018-Jun-18 03:30N 62°35' E 006°08'0 0.0
2018-Jun-18 03:00N 62°35' E 006°08'0 0.0
2018-Jun-18 02:30N 62°35' E 006°08'0 0.0
2018-Jun-18 02:00N 62°35' E 006°08'0 0.0
2018-Jun-18 01:30N 62°35' E 006°08'0 0.0
2018-Jun-18 01:00N 62°35' E 006°08'0 0.0
2018-Jun-18 00:30N 62°35' E 006°08'0 0.0
2018-Jun-18 00:01N 62°35' E 006°08'0 0.0
2018-Jun-17 23:30N 62°35' E 006°08'0 0.0
2018-Jun-17 23:01N 62°35' E 006°08'0 0.0
2018-Jun-17 22:30N 62°35' E 006°08'0 0.0
2018-Jun-17 22:00N 62°35' E 006°08'0 0.0
2018-Jun-17 21:30N 62°35' E 006°08'0 0.0
2018-Jun-17 21:00N 62°35' E 006°08'0 0.0
2018-Jun-17 20:30N 62°35' E 006°08'0 0.0
2018-Jun-17 20:00N 62°35' E 006°08'0 0.0
2018-Jun-17 19:30N 62°35' E 006°08'0 0.0
2018-Jun-17 19:00N 62°35' E 006°08'0 0.0
2018-Jun-17 18:30N 62°35' E 006°08'0 0.0
2018-Jun-17 18:00N 62°35' E 006°08'0 0.0
2018-Jun-17 17:29N 62°35' E 006°08'0 0.0
2018-Jun-17 17:00N 62°35' E 006°08'0 0.0
2018-Jun-17 16:30N 62°35' E 006°08'0 0.0
2018-Jun-17 16:00N 62°35' E 006°08'0 0.0
2018-Jun-17 15:30N 62°35' E 006°08'0 0.0
2018-Jun-17 15:00N 62°35' E 006°08'0 0.0
2018-Jun-17 14:30N 62°35' E 006°08'0 0.0
2018-Jun-17 14:00N 62°35' E 006°08'0 0.0
2018-Jun-17 13:30N 62°35' E 006°08'0 0.0
2018-Jun-17 13:00N 62°35' E 006°08'0 0.0
2018-Jun-17 12:30N 62°35' E 006°08'0 0.0
2018-Jun-17 12:00N 62°35' E 006°08'0 0.0
2018-Jun-17 11:30N 62°35' E 006°08'0 0.0
2018-Jun-17 11:00N 62°35' E 006°08'0 0.0
2018-Jun-17 10:30N 62°35' E 006°08'0 0.0
2018-Jun-17 10:00N 62°35' E 006°08'0 0.0
2018-Jun-17 09:30N 62°35' E 006°08'0 0.0
2018-Jun-17 09:00N 62°35' E 006°08'0 0.0
2018-Jun-17 08:30N 62°35' E 006°08'0 0.0
2018-Jun-17 08:01N 62°35' E 006°08'0 0.0
2018-Jun-17 07:30N 62°35' E 006°08'0 0.0
2018-Jun-17 07:00N 62°35' E 006°08'0 0.0
2018-Jun-17 06:30N 62°35' E 006°08'0 0.0
2018-Jun-17 06:00N 62°35' E 006°08'0 0.0
2018-Jun-17 05:30N 62°35' E 006°08'0 0.0
2018-Jun-17 05:00N 62°35' E 006°08'0 0.0
2018-Jun-17 04:30N 62°35' E 006°08'0 0.0
2018-Jun-17 04:00N 62°35' E 006°08'0 0.0
2018-Jun-17 03:30N 62°35' E 006°08'0 0.0
2018-Jun-17 03:00N 62°35' E 006°08'0 0.0
2018-Jun-17 02:30N 62°35' E 006°08'0 0.0
2018-Jun-17 02:00N 62°35' E 006°08'0 0.0
2018-Jun-17 01:30N 62°35' E 006°08'0 0.0
2018-Jun-17 01:00N 62°35' E 006°08'0 0.0
2018-Jun-17 00:30N 62°35' E 006°08'0 0.0
2018-Jun-17 00:00N 62°35' E 006°08'0 0.0
2018-Jun-16 23:30N 62°35' E 006°08'0 0.0
2018-Jun-16 23:01N 62°35' E 006°08'0 0.0
2018-Jun-16 22:30N 62°35' E 006°08'0 0.0
2018-Jun-16 22:00N 62°35' E 006°08'0 0.0
2018-Jun-16 21:30N 62°35' E 006°08'0 0.0
2018-Jun-16 21:00N 62°35' E 006°08'0 0.0
2018-Jun-16 20:30N 62°35' E 006°08'0 0.0
2018-Jun-16 20:00N 62°35' E 006°08'0 0.0
2018-Jun-16 19:30N 62°35' E 006°08'0 0.0
2018-Jun-16 19:00N 62°35' E 006°08'0 0.0
2018-Jun-16 18:30N 62°35' E 006°08'0 0.0
2018-Jun-16 18:00N 62°35' E 006°08'0 0.0
2018-Jun-16 17:30N 62°35' E 006°08'0 0.0
2018-Jun-16 17:00N 62°35' E 006°08'0 0.0
2018-Jun-16 16:30N 62°35' E 006°08'0 0.0
2018-Jun-16 16:00N 62°35' E 006°08'0 0.0
2018-Jun-16 15:31N 62°35' E 006°08'0 0.0
2018-Jun-16 15:00N 62°35' E 006°08'0 0.0
2018-Jun-16 14:30N 62°35' E 006°08'0 0.0
2018-Jun-16 14:00N 62°35' E 006°08'0 0.0
2018-Jun-16 13:30N 62°35' E 006°08'0 0.0
2018-Jun-16 13:00N 62°35' E 006°08'0 0.0
2018-Jun-16 12:30N 62°35' E 006°08'0 0.0
2018-Jun-16 12:00N 62°35' E 006°08'0 0.0
2018-Jun-16 11:30N 62°35' E 006°08'0 0.0
2018-Jun-16 11:00N 62°35' E 006°08'0 0.0
2018-Jun-16 10:30N 62°35' E 006°08'0 0.0
2018-Jun-16 10:00N 62°35' E 006°08'0 0.0
2018-Jun-16 09:30N 62°35' E 006°08'0 0.0
2018-Jun-16 09:00N 62°35' E 006°08'0 0.0
2018-Jun-16 08:30N 62°35' E 006°08'0 0.0
2018-Jun-16 08:00N 62°35' E 006°08'0 0.0
2018-Jun-16 07:30N 62°35' E 006°08'0 0.0
2018-Jun-16 07:00N 62°35' E 006°08'0 0.0
2018-Jun-16 06:30N 62°35' E 006°08'0 0.0
2018-Jun-16 06:00N 62°35' E 006°08'0 0.0
2018-Jun-16 05:30N 62°35' E 006°08'0 0.0
2018-Jun-16 05:01N 62°35' E 006°08'0 0.0
2018-Jun-16 04:30N 62°35' E 006°08'0 0.0
2018-Jun-16 04:01N 62°35' E 006°08'0 0.0
2018-Jun-16 03:31N 62°35' E 006°08'0 0.0
2018-Jun-16 03:00N 62°35' E 006°08'0 0.0
2018-Jun-16 02:30N 62°35' E 006°08'0 0.0
2018-Jun-16 02:00N 62°35' E 006°08'0 0.0
2018-Jun-16 01:30N 62°35' E 006°08'0 0.0
2018-Jun-16 01:00N 62°35' E 006°08'0 0.0
2018-Jun-16 00:30N 62°35' E 006°08'0 0.0
2018-Jun-16 00:00N 62°35' E 006°08'0 0.0
2018-Jun-15 23:30N 62°35' E 006°08'0 0.0
2018-Jun-15 23:00N 62°35' E 006°08'0 0.0
2018-Jun-15 22:30N 62°35' E 006°08'0 0.0
2018-Jun-15 22:00N 62°35' E 006°08'0 0.0
2018-Jun-15 21:30N 62°35' E 006°08'0 0.0
2018-Jun-15 21:00N 62°35' E 006°08'0 0.0
2018-Jun-15 20:31N 62°35' E 006°08'0 0.0
2018-Jun-15 20:00N 62°35' E 006°08'0 0.0
2018-Jun-15 19:30N 62°35' E 006°08'0 0.0
2018-Jun-15 19:00N 62°35' E 006°08'1 2.5
2018-Jun-15 18:30N 62°34' E 006°09'5 9.0
2018-Jun-15 18:00N 62°29' E 006°07'2 4.4
2018-Jun-15 17:30N 62°27' E 006°09'3 5.5
2018-Jun-15 17:00N 62°26' E 006°15'0 0.0
2018-Jun-15 16:30N 62°26' E 006°15'0 0.0
2018-Jun-15 16:00N 62°26' E 006°15'0 0.0
2018-Jun-15 15:30N 62°26' E 006°15'1 2.2
2018-Jun-15 15:00N 62°27' E 006°14'5 9.1
2018-Jun-15 14:30N 62°27' E 006°04'3 6.6
2018-Jun-15 14:00N 62°23' E 006°05'2 4.2
2018-Jun-15 13:30N 62°21' E 006°05'0 0.0
2018-Jun-15 13:00N 62°21' E 006°05'0 0.0
2018-Jun-15 12:30N 62°21' E 006°05'0 0.0
2018-Jun-15 12:00N 62°21' E 006°05'0 0.0
2018-Jun-15 11:29N 62°21' E 006°05'0 0.0
2018-Jun-15 11:00N 62°21' E 006°05'0 0.0
2018-Jun-15 10:30N 62°21' E 006°05'0 0.0
2018-Jun-15 09:58N 62°21' E 006°05'0 0.1
2018-Jun-15 09:28N 62°21' E 006°05'1 2.3
2018-Jun-15 09:00N 62°22' E 006°05'5 9.2
2018-Jun-15 08:30N 62°27' E 006°03'4 7.7
2018-Jun-15 08:00N 62°30' E 006°08'4 8.6
2018-Jun-15 07:30N 62°34' E 006°09'1 1.9
2018-Jun-15 07:00N 62°35' E 006°08'0 0.0
2018-Jun-15 06:30N 62°35' E 006°08'0 0.0
2018-Jun-15 06:00N 62°35' E 006°08'0 0.0
2018-Jun-15 05:30N 62°35' E 006°08'0 0.0
2018-Jun-15 05:00N 62°35' E 006°08'0 0.0
2018-Jun-15 04:30N 62°35' E 006°08'0 0.0
2018-Jun-15 04:00N 62°35' E 006°08'0 0.0
2018-Jun-15 03:30N 62°35' E 006°08'0 0.0
2018-Jun-15 03:00N 62°35' E 006°08'0 0.0
2018-Jun-15 02:30N 62°35' E 006°08'0 0.0
2018-Jun-15 02:00N 62°35' E 006°08'0 0.0
2018-Jun-15 01:30N 62°35' E 006°08'0 0.0
2018-Jun-15 01:00N 62°35' E 006°08'0 0.0
2018-Jun-15 00:29N 62°35' E 006°08'0 0.0
2018-Jun-15 00:00N 62°35' E 006°08'0 0.0
2018-Jun-14 23:30N 62°35' E 006°08'0 0.0
2018-Jun-14 23:00N 62°35' E 006°08'0 0.0
2018-Jun-14 22:30N 62°35' E 006°08'0 0.0
2018-Jun-14 22:00N 62°35' E 006°08'0 0.0
2018-Jun-14 21:30N 62°35' E 006°08'0 0.0
2018-Jun-14 21:00N 62°35' E 006°08'0 0.0
2018-Jun-14 20:30N 62°35' E 006°08'0 0.0
2018-Jun-14 20:00N 62°35' E 006°08'0 0.0
2018-Jun-14 19:30N 62°35' E 006°08'0 0.0
2018-Jun-14 19:00N 62°35' E 006°08'0 0.0
2018-Jun-14 18:30N 62°35' E 006°08'0 0.0
2018-Jun-14 18:00N 62°35' E 006°08'0 0.0
2018-Jun-14 17:30N 62°35' E 006°08'0 0.0
2018-Jun-14 17:00N 62°35' E 006°08'0 0.0
2018-Jun-14 16:30N 62°35' E 006°08'0 0.0
2018-Jun-14 16:00N 62°35' E 006°08'0 0.0
2018-Jun-14 15:30N 62°35' E 006°08'0 0.0
2018-Jun-14 15:00N 62°35' E 006°08'0 0.0
2018-Jun-14 14:30N 62°35' E 006°08'0 0.0
2018-Jun-14 13:59N 62°35' E 006°08'0 0.0
2018-Jun-14 13:30N 62°35' E 006°08'0 0.0
2018-Jun-14 13:00N 62°35' E 006°08'0 0.0
2018-Jun-14 12:30N 62°35' E 006°08'0 0.0
2018-Jun-14 12:00N 62°35' E 006°08'0 0.0
2018-Jun-14 11:30N 62°35' E 006°08'0 0.0
2018-Jun-14 11:00N 62°35' E 006°08'0 0.0
2018-Jun-14 10:30N 62°35' E 006°08'0 0.0
2018-Jun-14 10:00N 62°35' E 006°08'0 0.0
2018-Jun-14 09:30N 62°35' E 006°08'0 0.0
2018-Jun-14 09:00N 62°35' E 006°08'0 0.0
2018-Jun-14 08:30N 62°35' E 006°08'0 0.0
2018-Jun-14 08:00N 62°35' E 006°08'0 0.0
2018-Jun-14 07:30N 62°35' E 006°08'0 0.0
2018-Jun-14 07:00N 62°35' E 006°08'0 0.0
2018-Jun-14 06:30N 62°35' E 006°08'0 0.0
2018-Jun-14 06:00N 62°35' E 006°08'0 0.0
2018-Jun-14 05:30N 62°35' E 006°08'0 0.0
2018-Jun-14 05:00N 62°35' E 006°08'0 0.0
2018-Jun-14 04:30N 62°35' E 006°08'0 0.0
2018-Jun-14 04:00N 62°35' E 006°08'0 0.0
2018-Jun-14 03:30N 62°35' E 006°08'0 0.0
2018-Jun-14 03:00N 62°35' E 006°08'0 0.0
2018-Jun-14 02:30N 62°35' E 006°08'0 0.0
2018-Jun-14 02:01N 62°35' E 006°08'0 0.0
2018-Jun-14 01:30N 62°35' E 006°08'0 0.0
2018-Jun-14 01:00N 62°35' E 006°08'0 0.0
2018-Jun-14 00:30N 62°35' E 006°08'0 0.0
2018-Jun-14 00:00N 62°35' E 006°08'0 0.0
2018-Jun-13 23:30N 62°35' E 006°08'0 0.0
2018-Jun-13 23:00N 62°35' E 006°08'0 0.0
2018-Jun-13 22:30N 62°35' E 006°08'0 0.0
2018-Jun-13 22:00N 62°35' E 006°08'0 0.0
2018-Jun-13 21:30N 62°35' E 006°08'0 0.0
2018-Jun-13 21:00N 62°35' E 006°08'0 0.0
2018-Jun-13 20:30N 62°35' E 006°08'0 0.0
2018-Jun-13 20:00N 62°35' E 006°08'0 0.0
2018-Jun-13 19:31N 62°35' E 006°08'0 0.0
2018-Jun-13 19:00N 62°35' E 006°08'0 0.0
2018-Jun-13 18:30N 62°35' E 006°08'0 0.0
2018-Jun-13 18:00N 62°35' E 006°08'0 0.0
2018-Jun-13 17:30N 62°35' E 006°08'0 0.0
2018-Jun-13 17:00N 62°35' E 006°08'0 0.0
2018-Jun-13 16:30N 62°35' E 006°08'0 0.0
2018-Jun-13 16:00N 62°35' E 006°08'0 0.0
2018-Jun-13 15:31N 62°35' E 006°08'0 0.0
2018-Jun-13 15:00N 62°35' E 006°08'0 0.0
2018-Jun-13 14:30N 62°35' E 006°08'0 0.0
2018-Jun-13 14:00N 62°35' E 006°08'0 0.0
2018-Jun-13 13:30N 62°35' E 006°08'0 0.0
2018-Jun-13 13:00N 62°35' E 006°08'0 0.0
2018-Jun-13 12:30N 62°35' E 006°08'0 0.0
2018-Jun-13 12:00N 62°35' E 006°08'0 0.0
2018-Jun-13 11:30N 62°35' E 006°08'0 0.0
2018-Jun-13 11:00N 62°35' E 006°08'0 0.0
2018-Jun-13 10:30N 62°35' E 006°08'0 0.0
2018-Jun-13 10:00N 62°35' E 006°08'0 0.0
2018-Jun-13 09:30N 62°35' E 006°08'0 0.0
2018-Jun-13 09:00N 62°35' E 006°08'0 0.0
2018-Jun-13 08:30N 62°35' E 006°08'0 0.0
2018-Jun-13 08:00N 62°35' E 006°08'0 0.0
2018-Jun-13 07:30N 62°35' E 006°08'0 0.0
2018-Jun-13 07:00N 62°35' E 006°08'0 0.0
2018-Jun-13 06:30N 62°35' E 006°08'0 0.0
2018-Jun-13 06:00N 62°35' E 006°08'0 0.0
2018-Jun-13 05:30N 62°35' E 006°08'0 0.0
2018-Jun-13 04:59N 62°35' E 006°08'0 0.0
2018-Jun-13 04:30N 62°35' E 006°08'0 0.0
2018-Jun-13 03:59N 62°35' E 006°08'0 0.0
2018-Jun-13 03:29N 62°35' E 006°08'0 0.0
2018-Jun-13 03:00N 62°35' E 006°08'0 0.0
2018-Jun-13 02:29N 62°35' E 006°08'0 0.0
2018-Jun-13 01:59N 62°35' E 006°08'0 0.0
2018-Jun-13 01:30N 62°35' E 006°08'0 0.0
2018-Jun-13 01:00N 62°35' E 006°08'0 0.0
2018-Jun-13 00:30N 62°35' E 006°08'0 0.0
2018-Jun-12 23:59N 62°35' E 006°08'0 0.0
2018-Jun-12 23:29N 62°35' E 006°08'0 0.0
2018-Jun-12 23:00N 62°35' E 006°08'0 0.0
2018-Jun-12 22:30N 62°35' E 006°08'0 0.0
2018-Jun-12 22:00N 62°35' E 006°08'0 0.0
2018-Jun-12 21:30N 62°35' E 006°08'0 0.0
2018-Jun-12 21:00N 62°35' E 006°08'0 0.0
2018-Jun-12 20:30N 62°35' E 006°08'0 0.0
2018-Jun-12 20:00N 62°35' E 006°08'0 0.0
2018-Jun-12 19:30N 62°35' E 006°08'0 0.0
2018-Jun-12 19:00N 62°35' E 006°08'0 0.0
2018-Jun-12 18:30N 62°35' E 006°08'0 0.0
2018-Jun-12 18:00N 62°35' E 006°08'0 0.0
2018-Jun-12 17:30N 62°35' E 006°08'3 5.6
2018-Jun-12 17:00N 62°32' E 006°09'3 6.7
2018-Jun-12 16:29N 62°29' E 006°13'1 2.3
2018-Jun-12 16:00N 62°29' E 006°15'0 0.0
2018-Jun-12 15:30N 62°29' E 006°15'0 0.0
2018-Jun-12 15:00N 62°29' E 006°15'2 3.9
2018-Jun-12 14:29N 62°29' E 006°11'4 7.3
2018-Jun-12 14:00N 62°27' E 006°05'4 8.7
2018-Jun-12 13:30N 62°27' E 006°15'0 1.0
2018-Jun-12 13:00N 62°26' E 006°15'2 3.9
2018-Jun-12 12:30N 62°27' E 006°11'4 8.0
2018-Jun-12 12:00N 62°26' E 006°03'4 9.0
2018-Jun-12 11:30N 62°21' E 006°05'0 0.9
2018-Jun-12 11:00N 62°21' E 006°05'0 0.2
2018-Jun-12 10:29N 62°21' E 006°05'4 7.9
2018-Jun-12 09:59N 62°25' E 006°03'4 9.2
2018-Jun-12 09:30N 62°29' E 006°07'4 8.7
2018-Jun-12 09:00N 62°33' E 006°09'2 3.1
2018-Jun-12 08:30N 62°35' E 006°08'0 0.0
2018-Jun-12 08:00N 62°35' E 006°08'0 0.0
2018-Jun-12 07:30N 62°35' E 006°08'0 0.0
2018-Jun-12 07:00N 62°35' E 006°08'0 0.0
2018-Jun-12 06:30N 62°35' E 006°08'0 0.0
2018-Jun-12 06:00N 62°35' E 006°08'0 0.0
2018-Jun-12 05:30N 62°35' E 006°08'0 0.0
2018-Jun-12 05:00N 62°35' E 006°08'0 0.0
2018-Jun-12 04:30N 62°35' E 006°08'0 0.0
2018-Jun-12 03:59N 62°35' E 006°08'0 0.0
2018-Jun-12 03:30N 62°35' E 006°08'0 0.0
2018-Jun-12 03:00N 62°35' E 006°08'0 0.0
2018-Jun-12 02:30N 62°35' E 006°08'0 0.0
2018-Jun-12 02:00N 62°35' E 006°08'0 0.0
2018-Jun-12 01:30N 62°35' E 006°08'0 0.0
2018-Jun-12 01:00N 62°35' E 006°08'0 0.0
2018-Jun-12 00:30N 62°35' E 006°08'0 0.0
2018-Jun-12 00:00N 62°35' E 006°08'0 0.0
2018-Jun-11 23:30N 62°35' E 006°08'0 0.0
2018-Jun-11 23:00N 62°35' E 006°08'0 0.0
2018-Jun-11 22:30N 62°35' E 006°08'0 0.0
2018-Jun-11 22:00N 62°35' E 006°08'0 0.0
2018-Jun-11 21:30N 62°35' E 006°08'0 0.0
2018-Jun-11 21:00N 62°35' E 006°08'0 0.0
2018-Jun-11 20:30N 62°35' E 006°08'0 0.0
2018-Jun-11 20:00N 62°35' E 006°08'0 0.0
2018-Jun-11 19:30N 62°35' E 006°08'0 0.0
2018-Jun-11 19:00N 62°35' E 006°08'0 0.0
2018-Jun-11 18:28N 62°35' E 006°08'0 0.0
2018-Jun-11 18:00N 62°35' E 006°08'0 0.0
2018-Jun-11 17:29N 62°35' E 006°08'0 0.0
2018-Jun-11 16:59N 62°35' E 006°08'0 0.0
2018-Jun-11 16:30N 62°35' E 006°08'0 0.0
2018-Jun-11 16:00N 62°35' E 006°08'0 0.0
2018-Jun-11 15:29N 62°35' E 006°08'0 0.0
2018-Jun-11 15:00N 62°35' E 006°08'0 0.0
2018-Jun-11 14:29N 62°35' E 006°08'0 0.0
2018-Jun-11 13:59N 62°35' E 006°08'0 0.0
2018-Jun-11 13:30N 62°35' E 006°08'0 0.0
2018-Jun-11 12:59N 62°35' E 006°08'0 0.0
2018-Jun-11 12:29N 62°35' E 006°08'0 0.0
2018-Jun-11 12:00N 62°35' E 006°08'0 0.0
2018-Jun-11 11:29N 62°35' E 006°08'0 0.0
2018-Jun-11 11:00N 62°35' E 006°08'0 0.0
2018-Jun-11 10:30N 62°35' E 006°08'0 0.0
2018-Jun-11 09:59N 62°35' E 006°08'0 0.0
2018-Jun-11 09:30N 62°35' E 006°08'0 0.0
2018-Jun-11 09:00N 62°35' E 006°08'0 0.0
2018-Jun-11 08:30N 62°35' E 006°08'0 0.0
2018-Jun-11 08:00N 62°35' E 006°08'0 0.0
2018-Jun-11 07:30N 62°35' E 006°08'0 0.0
2018-Jun-11 07:00N 62°35' E 006°08'0 0.0
2018-Jun-11 06:30N 62°35' E 006°08'0 0.0
2018-Jun-11 06:00N 62°35' E 006°08'0 0.0
2018-Jun-11 05:27N 62°35' E 006°08'0 0.0
2018-Jun-11 05:00N 62°35' E 006°08'0 0.0
2018-Jun-11 04:25N 62°35' E 006°08'0 0.0
2018-Jun-11 04:00N 62°35' E 006°08'0 0.0
2018-Jun-11 03:30N 62°35' E 006°08'0 0.0
2018-Jun-11 03:00N 62°35' E 006°08'0 0.0
2018-Jun-11 02:30N 62°35' E 006°08'0 0.0
2018-Jun-11 02:00N 62°35' E 006°08'0 0.0
2018-Jun-11 01:30N 62°35' E 006°08'0 0.0
2018-Jun-11 01:00N 62°35' E 006°08'0 0.0
2018-Jun-11 00:30N 62°35' E 006°08'0 0.0
2018-Jun-11 00:00N 62°35' E 006°08'0 0.0
2018-Jun-10 23:30N 62°35' E 006°08'0 0.0
2018-Jun-10 23:00N 62°35' E 006°08'0 0.0
2018-Jun-10 22:30N 62°35' E 006°08'0 0.0
2018-Jun-10 22:00N 62°35' E 006°08'0 0.0
2018-Jun-10 21:30N 62°35' E 006°08'0 0.0
2018-Jun-10 21:00N 62°35' E 006°08'0 0.0
2018-Jun-10 20:30N 62°35' E 006°08'0 0.0
2018-Jun-10 20:00N 62°35' E 006°08'0 0.0
2018-Jun-10 19:30N 62°35' E 006°08'0 0.0
2018-Jun-10 19:00N 62°35' E 006°08'0 0.0
2018-Jun-10 18:30N 62°35' E 006°08'0 0.0
2018-Jun-10 18:00N 62°35' E 006°08'0 0.0
2018-Jun-10 17:30N 62°35' E 006°08'0 0.0
2018-Jun-10 17:00N 62°35' E 006°08'0 0.0
2018-Jun-10 16:30N 62°35' E 006°08'0 0.0
2018-Jun-10 16:00N 62°35' E 006°08'0 0.0
2018-Jun-10 15:30N 62°35' E 006°08'0 0.0
2018-Jun-10 15:00N 62°35' E 006°08'0 0.0
2018-Jun-10 14:00N 62°35' E 006°08'0 0.0
2018-Jun-10 13:30N 62°35' E 006°08'0 0.0
2018-Jun-10 13:00N 62°35' E 006°08'0 0.0
2018-Jun-10 12:30N 62°35' E 006°08'0 0.0
2018-Jun-10 12:00N 62°35' E 006°08'0 0.0
2018-Jun-10 11:30N 62°35' E 006°08'0 0.0
2018-Jun-10 11:00N 62°35' E 006°08'0 0.0
2018-Jun-10 10:30N 62°35' E 006°08'0 0.0
2018-Jun-10 10:00N 62°35' E 006°08'0 0.0
2018-Jun-10 09:30N 62°35' E 006°08'0 0.0
2018-Jun-10 09:00N 62°35' E 006°08'0 0.0
2018-Jun-10 08:30N 62°35' E 006°08'0 0.0
2018-Jun-10 08:00N 62°35' E 006°08'0 0.0
2018-Jun-10 07:29N 62°35' E 006°08'0 0.0
2018-Jun-10 07:00N 62°35' E 006°08'0 0.0
2018-Jun-10 06:29N 62°35' E 006°08'0 0.0
2018-Jun-10 06:00N 62°35' E 006°08'0 0.0
2018-Jun-10 05:29N 62°35' E 006°08'0 0.0
2018-Jun-10 05:00N 62°35' E 006°08'0 0.0
2018-Jun-10 04:29N 62°35' E 006°08'0 0.0
2018-Jun-10 04:00N 62°35' E 006°08'0 0.0
2018-Jun-10 03:30N 62°35' E 006°08'0 0.0
2018-Jun-10 03:00N 62°35' E 006°08'0 0.0
2018-Jun-10 02:30N 62°35' E 006°08'0 0.0
2018-Jun-10 01:59N 62°35' E 006°08'0 0.0
2018-Jun-10 01:30N 62°35' E 006°08'0 0.0
2018-Jun-10 00:59N 62°35' E 006°08'0 0.0
2018-Jun-10 00:30N 62°35' E 006°08'0 0.0
2018-Jun-10 00:00N 62°35' E 006°08'0 0.0
2018-Jun-09 23:30N 62°35' E 006°08'0 0.0
2018-Jun-09 23:00N 62°35' E 006°08'0 0.0
2018-Jun-09 22:30N 62°35' E 006°08'0 0.0
2018-Jun-09 21:59N 62°35' E 006°08'0 0.0
2018-Jun-09 21:30N 62°35' E 006°08'0 0.0
2018-Jun-09 21:00N 62°35' E 006°08'0 0.0
2018-Jun-09 20:30N 62°35' E 006°08'0 0.0
2018-Jun-09 19:59N 62°35' E 006°08'0 0.0
2018-Jun-09 19:30N 62°35' E 006°08'0 0.0
2018-Jun-09 19:00N 62°35' E 006°08'0 0.0
2018-Jun-09 18:30N 62°35' E 006°08'0 0.0
2018-Jun-09 17:59N 62°35' E 006°08'0 0.0
2018-Jun-09 17:30N 62°35' E 006°08'0 0.0
2018-Jun-09 17:00N 62°35' E 006°08'0 0.0
2018-Jun-09 16:30N 62°35' E 006°08'0 0.0
2018-Jun-09 15:55N 62°35' E 006°08'0 0.0
2018-Jun-09 15:00N 62°35' E 006°08'0 0.0
2018-Jun-09 14:30N 62°35' E 006°08'0 0.0
2018-Jun-09 14:00N 62°35' E 006°08'0 0.0
2018-Jun-09 13:30N 62°35' E 006°08'0 0.0
2018-Jun-09 12:59N 62°35' E 006°08'0 0.0
2018-Jun-09 12:30N 62°35' E 006°08'0 0.0
2018-Jun-09 11:59N 62°35' E 006°08'0 0.0
2018-Jun-09 11:30N 62°35' E 006°08'0 0.0
2018-Jun-09 11:00N 62°35' E 006°08'0 0.0
2018-Jun-09 10:30N 62°35' E 006°08'0 0.0
2018-Jun-09 10:00N 62°35' E 006°08'0 0.0
2018-Jun-09 09:30N 62°35' E 006°08'0 0.0
2018-Jun-09 08:59N 62°35' E 006°08'0 0.0
2018-Jun-09 08:30N 62°35' E 006°08'0 0.0
2018-Jun-09 08:00N 62°35' E 006°08'0 0.0
2018-Jun-09 07:30N 62°35' E 006°08'0 0.0
2018-Jun-09 06:59N 62°35' E 006°08'0 0.0
2018-Jun-09 06:30N 62°35' E 006°08'0 0.0
2018-Jun-09 06:00N 62°35' E 006°08'0 0.0
2018-Jun-09 05:29N 62°35' E 006°08'0 0.0
2018-Jun-09 05:01N 62°35' E 006°08'0 0.0
2018-Jun-09 04:30N 62°35' E 006°08'0 0.0
2018-Jun-09 04:00N 62°35' E 006°08'0 0.0
2018-Jun-09 03:30N 62°35' E 006°08'0 0.0
2018-Jun-09 03:00N 62°35' E 006°08'0 0.0
2018-Jun-09 02:30N 62°35' E 006°08'0 0.0
2018-Jun-09 01:59N 62°35' E 006°08'0 0.0
2018-Jun-09 01:30N 62°35' E 006°08'0 0.0
2018-Jun-09 01:00N 62°35' E 006°08'0 0.0
2018-Jun-09 00:30N 62°35' E 006°08'0 0.0
2018-Jun-09 00:00N 62°35' E 006°08'  
Track history (hours):
 
Tides and Currents Weather Stations Pressure Air Temp Water Temp Dewpoint Dewpoint Depression Visibility Wind Speed Wind Dir Waves Ship Positions

Botrans

Last reported at 2018-Jun-18 23:58 UTC. Time now 2018-Jun-24 00:54 UTC.
Position N 62°35' E 006°08'.

Length 49 m; draft 5 m.

Type: Ship. MMSI: 258180000.

Date/timePositionNaut miles runAvg speedWind from/ knotsBaromVisibWave heightAir tempDewpointWater temp
2018-Jun-18 23:58N 62°35' E 006°08'0 0.7
2018-Jun-18 23:28N 62°35' E 006°08'4 9.0
2018-Jun-18 23:00N 62°30' E 006°09'4 7.1
2018-Jun-18 22:30N 62°27' E 006°07'4 7.4
2018-Jun-18 22:00N 62°27' E 006°15'0 0.6
2018-Jun-18 21:30N 62°26' E 006°15'0 0.0
2018-Jun-18 21:00N 62°26' E 006°15'2 4.4
2018-Jun-18 20:30N 62°27' E 006°10'4 7.6
2018-Jun-18 20:00N 62°25' E 006°03'4 8.0
2018-Jun-18 19:29N 62°21' E 006°05'0 0.0
2018-Jun-18 19:00N 62°21' E 006°05'0 0.0
2018-Jun-18 18:30N 62°21' E 006°05'0 0.0
2018-Jun-18 18:00N 62°21' E 006°05'0 0.0
2018-Jun-18 17:30N 62°21' E 006°05'0 0.0
2018-Jun-18 17:00N 62°21' E 006°05'0 0.0
2018-Jun-18 16:30N 62°21' E 006°05'0 0.0
2018-Jun-18 16:00N 62°21' E 006°05'0 0.0
2018-Jun-18 15:30N 62°21' E 006°05'0 0.0
2018-Jun-18 15:00N 62°21' E 006°05'2 4.2
2018-Jun-18 14:29N 62°23' E 006°04'4 8.0
2018-Jun-18 14:00N 62°27' E 006°02'2 3.0
2018-Jun-18 13:30N 62°28' E 006°03'4 7.3
2018-Jun-18 13:00N 62°31' E 006°09'4 3.7
2018-Jun-18 11:56N 62°35' E 006°08'0 0.0
2018-Jun-18 11:29N 62°35' E 006°08'0 0.0
2018-Jun-18 11:00N 62°35' E 006°08'0 0.0
2018-Jun-18 10:30N 62°35' E 006°08'0 0.0
2018-Jun-18 10:00N 62°35' E 006°08'0 0.0
2018-Jun-18 09:30N 62°35' E 006°08'0 0.0
2018-Jun-18 09:00N 62°35' E 006°08'0 0.0
2018-Jun-18 08:30N 62°35' E 006°08'0 0.0
2018-Jun-18 08:00N 62°35' E 006°08'0 0.0
2018-Jun-18 07:31N 62°35' E 006°08'0 0.0
2018-Jun-18 07:00N 62°35' E 006°08'0 0.0
2018-Jun-18 06:30N 62°35' E 006°08'0 0.0
2018-Jun-18 06:00N 62°35' E 006°08'0 0.0
2018-Jun-18 05:30N 62°35' E 006°08'0 0.0
2018-Jun-18 05:00N 62°35' E 006°08'0 0.0
2018-Jun-18 04:30N 62°35' E 006°08'0 0.0
2018-Jun-18 04:00N 62°35' E 006°08'0 0.0
2018-Jun-18 03:30N 62°35' E 006°08'0 0.0
2018-Jun-18 03:00N 62°35' E 006°08'0 0.0
2018-Jun-18 02:30N 62°35' E 006°08'0 0.0
2018-Jun-18 02:00N 62°35' E 006°08'0 0.0
2018-Jun-18 01:30N 62°35' E 006°08'0 0.0
2018-Jun-18 01:00N 62°35' E 006°08'0 0.0
2018-Jun-18 00:30N 62°35' E 006°08'0 0.0
2018-Jun-18 00:01N 62°35' E 006°08'0 0.0
2018-Jun-17 23:30N 62°35' E 006°08'0 0.0
2018-Jun-17 23:01N 62°35' E 006°08'0 0.0
2018-Jun-17 22:30N 62°35' E 006°08'0 0.0
2018-Jun-17 22:00N 62°35' E 006°08'0 0.0
2018-Jun-17 21:30N 62°35' E 006°08'0 0.0
2018-Jun-17 21:00N 62°35' E 006°08'0 0.0
2018-Jun-17 20:30N 62°35' E 006°08'0 0.0
2018-Jun-17 20:00N 62°35' E 006°08'0 0.0
2018-Jun-17 19:30N 62°35' E 006°08'0 0.0
2018-Jun-17 19:00N 62°35' E 006°08'0 0.0
2018-Jun-17 18:30N 62°35' E 006°08'0 0.0
2018-Jun-17 18:00N 62°35' E 006°08'0 0.0
2018-Jun-17 17:29N 62°35' E 006°08'0 0.0
2018-Jun-17 17:00N 62°35' E 006°08'0 0.0
2018-Jun-17 16:30N 62°35' E 006°08'0 0.0
2018-Jun-17 16:00N 62°35' E 006°08'0 0.0
2018-Jun-17 15:30N 62°35' E 006°08'0 0.0
2018-Jun-17 15:00N 62°35' E 006°08'0 0.0
2018-Jun-17 14:30N 62°35' E 006°08'0 0.0
2018-Jun-17 14:00N 62°35' E 006°08'0 0.0
2018-Jun-17 13:30N 62°35' E 006°08'0 0.0
2018-Jun-17 13:00N 62°35' E 006°08'0 0.0
2018-Jun-17 12:30N 62°35' E 006°08'0 0.0
2018-Jun-17 12:00N 62°35' E 006°08'0 0.0
2018-Jun-17 11:30N 62°35' E 006°08'0 0.0
2018-Jun-17 11:00N 62°35' E 006°08'0 0.0
2018-Jun-17 10:30N 62°35' E 006°08'0 0.0
2018-Jun-17 10:00N 62°35' E 006°08'0 0.0
2018-Jun-17 09:30N 62°35' E 006°08'0 0.0
2018-Jun-17 09:00N 62°35' E 006°08'0 0.0
2018-Jun-17 08:30N 62°35' E 006°08'0 0.0
2018-Jun-17 08:01N 62°35' E 006°08'0 0.0
2018-Jun-17 07:30N 62°35' E 006°08'0 0.0
2018-Jun-17 07:00N 62°35' E 006°08'0 0.0
2018-Jun-17 06:30N 62°35' E 006°08'0 0.0
2018-Jun-17 06:00N 62°35' E 006°08'0 0.0
2018-Jun-17 05:30N 62°35' E 006°08'0 0.0
2018-Jun-17 05:00N 62°35' E 006°08'0 0.0
2018-Jun-17 04:30N 62°35' E 006°08'0 0.0
2018-Jun-17 04:00N 62°35' E 006°08'0 0.0
2018-Jun-17 03:30N 62°35' E 006°08'0 0.0
2018-Jun-17 03:00N 62°35' E 006°08'0 0.0
2018-Jun-17 02:30N 62°35' E 006°08'0 0.0
2018-Jun-17 02:00N 62°35' E 006°08'0 0.0
2018-Jun-17 01:30N 62°35' E 006°08'0 0.0
2018-Jun-17 01:00N 62°35' E 006°08'0 0.0
2018-Jun-17 00:30N 62°35' E 006°08'0 0.0
2018-Jun-17 00:00N 62°35' E 006°08'0 0.0
2018-Jun-16 23:30N 62°35' E 006°08'0 0.0
2018-Jun-16 23:01N 62°35' E 006°08'0 0.0
2018-Jun-16 22:30N 62°35' E 006°08'0 0.0
2018-Jun-16 22:00N 62°35' E 006°08'0 0.0
2018-Jun-16 21:30N 62°35' E 006°08'0 0.0
2018-Jun-16 21:00N 62°35' E 006°08'0 0.0
2018-Jun-16 20:30N 62°35' E 006°08'0 0.0
2018-Jun-16 20:00N 62°35' E 006°08'0 0.0
2018-Jun-16 19:30N 62°35' E 006°08'0 0.0
2018-Jun-16 19:00N 62°35' E 006°08'0 0.0
2018-Jun-16 18:30N 62°35' E 006°08'0 0.0
2018-Jun-16 18:00N 62°35' E 006°08'0 0.0
2018-Jun-16 17:30N 62°35' E 006°08'0 0.0
2018-Jun-16 17:00N 62°35' E 006°08'0 0.0
2018-Jun-16 16:30N 62°35' E 006°08'0 0.0
2018-Jun-16 16:00N 62°35' E 006°08'0 0.0
2018-Jun-16 15:31N 62°35' E 006°08'0 0.0
2018-Jun-16 15:00N 62°35' E 006°08'0 0.0
2018-Jun-16 14:30N 62°35' E 006°08'0 0.0
2018-Jun-16 14:00N 62°35' E 006°08'0 0.0
2018-Jun-16 13:30N 62°35' E 006°08'0 0.0
2018-Jun-16 13:00N 62°35' E 006°08'0 0.0
2018-Jun-16 12:30N 62°35' E 006°08'0 0.0
2018-Jun-16 12:00N 62°35' E 006°08'0 0.0
2018-Jun-16 11:30N 62°35' E 006°08'0 0.0
2018-Jun-16 11:00N 62°35' E 006°08'0 0.0
2018-Jun-16 10:30N 62°35' E 006°08'0 0.0
2018-Jun-16 10:00N 62°35' E 006°08'0 0.0
2018-Jun-16 09:30N 62°35' E 006°08'0 0.0
2018-Jun-16 09:00N 62°35' E 006°08'0 0.0
2018-Jun-16 08:30N 62°35' E 006°08'0 0.0
2018-Jun-16 08:00N 62°35' E 006°08'0 0.0
2018-Jun-16 07:30N 62°35' E 006°08'0 0.0
2018-Jun-16 07:00N 62°35' E 006°08'0 0.0
2018-Jun-16 06:30N 62°35' E 006°08'0 0.0
2018-Jun-16 06:00N 62°35' E 006°08'0 0.0
2018-Jun-16 05:30N 62°35' E 006°08'0 0.0
2018-Jun-16 05:01N 62°35' E 006°08'0 0.0
2018-Jun-16 04:30N 62°35' E 006°08'0 0.0
2018-Jun-16 04:01N 62°35' E 006°08'0 0.0
2018-Jun-16 03:31N 62°35' E 006°08'0 0.0
2018-Jun-16 03:00N 62°35' E 006°08'0 0.0
2018-Jun-16 02:30N 62°35' E 006°08'0 0.0
2018-Jun-16 02:00N 62°35' E 006°08'0 0.0
2018-Jun-16 01:30N 62°35' E 006°08'0 0.0
2018-Jun-16 01:00N 62°35' E 006°08'0 0.0
2018-Jun-16 00:30N 62°35' E 006°08'0 0.0
2018-Jun-16 00:00N 62°35' E 006°08'0 0.0
2018-Jun-15 23:30N 62°35' E 006°08'0 0.0
2018-Jun-15 23:00N 62°35' E 006°08'0 0.0
2018-Jun-15 22:30N 62°35' E 006°08'0 0.0
2018-Jun-15 22:00N 62°35' E 006°08'0 0.0
2018-Jun-15 21:30N 62°35' E 006°08'0 0.0
2018-Jun-15 21:00N 62°35' E 006°08'0 0.0
2018-Jun-15 20:31N 62°35' E 006°08'0 0.0
2018-Jun-15 20:00N 62°35' E 006°08'0 0.0
2018-Jun-15 19:30N 62°35' E 006°08'0 0.0
2018-Jun-15 19:00N 62°35' E 006°08'1 2.5
2018-Jun-15 18:30N 62°34' E 006°09'5 9.0
2018-Jun-15 18:00N 62°29' E 006°07'2 4.4
2018-Jun-15 17:30N 62°27' E 006°09'3 5.5
2018-Jun-15 17:00N 62°26' E 006°15'0 0.0
2018-Jun-15 16:30N 62°26' E 006°15'0 0.0
2018-Jun-15 16:00N 62°26' E 006°15'0 0.0
2018-Jun-15 15:30N 62°26' E 006°15'1 2.2
2018-Jun-15 15:00N 62°27' E 006°14'5 9.1
2018-Jun-15 14:30N 62°27' E 006°04'3 6.6
2018-Jun-15 14:00N 62°23' E 006°05'2 4.2
2018-Jun-15 13:30N 62°21' E 006°05'0 0.0
2018-Jun-15 13:00N 62°21' E 006°05'0 0.0
2018-Jun-15 12:30N 62°21' E 006°05'0 0.0
2018-Jun-15 12:00N 62°21' E 006°05'0 0.0
2018-Jun-15 11:29N 62°21' E 006°05'0 0.0
2018-Jun-15 11:00N 62°21' E 006°05'0 0.0
2018-Jun-15 10:30N 62°21' E 006°05'0 0.0
2018-Jun-15 09:58N 62°21' E 006°05'0 0.1
2018-Jun-15 09:28N 62°21' E 006°05'1 2.3
2018-Jun-15 09:00N 62°22' E 006°05'5 9.2
2018-Jun-15 08:30N 62°27' E 006°03'4 7.7
2018-Jun-15 08:00N 62°30' E 006°08'4 8.6
2018-Jun-15 07:30N 62°34' E 006°09'1 1.9
2018-Jun-15 07:00N 62°35' E 006°08'0 0.0
2018-Jun-15 06:30N 62°35' E 006°08'0 0.0
2018-Jun-15 06:00N 62°35' E 006°08'0 0.0
2018-Jun-15 05:30N 62°35' E 006°08'0 0.0
2018-Jun-15 05:00N 62°35' E 006°08'0 0.0
2018-Jun-15 04:30N 62°35' E 006°08'0 0.0
2018-Jun-15 04:00N 62°35' E 006°08'0 0.0
2018-Jun-15 03:30N 62°35' E 006°08'0 0.0
2018-Jun-15 03:00N 62°35' E 006°08'0 0.0
2018-Jun-15 02:30N 62°35' E 006°08'0 0.0
2018-Jun-15 02:00N 62°35' E 006°08'0 0.0
2018-Jun-15 01:30N 62°35' E 006°08'0 0.0
2018-Jun-15 01:00N 62°35' E 006°08'0 0.0
2018-Jun-15 00:29N 62°35' E 006°08'0 0.0
2018-Jun-15 00:00N 62°35' E 006°08'0 0.0
2018-Jun-14 23:30N 62°35' E 006°08'0 0.0
2018-Jun-14 23:00N 62°35' E 006°08'0 0.0
2018-Jun-14 22:30N 62°35' E 006°08'0 0.0
2018-Jun-14 22:00N 62°35' E 006°08'0 0.0
2018-Jun-14 21:30N 62°35' E 006°08'0 0.0
2018-Jun-14 21:00N 62°35' E 006°08'0 0.0
2018-Jun-14 20:30N 62°35' E 006°08'0 0.0
2018-Jun-14 20:00N 62°35' E 006°08'0 0.0
2018-Jun-14 19:30N 62°35' E 006°08'0 0.0
2018-Jun-14 19:00N 62°35' E 006°08'0 0.0
2018-Jun-14 18:30N 62°35' E 006°08'0 0.0
2018-Jun-14 18:00N 62°35' E 006°08'0 0.0
2018-Jun-14 17:30N 62°35' E 006°08'0 0.0
2018-Jun-14 17:00N 62°35' E 006°08'0 0.0
2018-Jun-14 16:30N 62°35' E 006°08'0 0.0
2018-Jun-14 16:00N 62°35' E 006°08'0 0.0
2018-Jun-14 15:30N 62°35' E 006°08'0 0.0
2018-Jun-14 15:00N 62°35' E 006°08'0 0.0
2018-Jun-14 14:30N 62°35' E 006°08'0 0.0
2018-Jun-14 13:59N 62°35' E 006°08'0 0.0
2018-Jun-14 13:30N 62°35' E 006°08'0 0.0
2018-Jun-14 13:00N 62°35' E 006°08'0 0.0
2018-Jun-14 12:30N 62°35' E 006°08'0 0.0
2018-Jun-14 12:00N 62°35' E 006°08'0 0.0
2018-Jun-14 11:30N 62°35' E 006°08'0 0.0
2018-Jun-14 11:00N 62°35' E 006°08'0 0.0
2018-Jun-14 10:30N 62°35' E 006°08'0 0.0
2018-Jun-14 10:00N 62°35' E 006°08'0 0.0
2018-Jun-14 09:30N 62°35' E 006°08'0 0.0
2018-Jun-14 09:00N 62°35' E 006°08'0 0.0
2018-Jun-14 08:30N 62°35' E 006°08'0 0.0
2018-Jun-14 08:00N 62°35' E 006°08'0 0.0
2018-Jun-14 07:30N 62°35' E 006°08'0 0.0
2018-Jun-14 07:00N 62°35' E 006°08'0 0.0
2018-Jun-14 06:30N 62°35' E 006°08'0 0.0
2018-Jun-14 06:00N 62°35' E 006°08'0 0.0
2018-Jun-14 05:30N 62°35' E 006°08'0 0.0
2018-Jun-14 05:00N 62°35' E 006°08'0 0.0
2018-Jun-14 04:30N 62°35' E 006°08'0 0.0
2018-Jun-14 04:00N 62°35' E 006°08'0 0.0
2018-Jun-14 03:30N 62°35' E 006°08'0 0.0
2018-Jun-14 03:00N 62°35' E 006°08'0 0.0
2018-Jun-14 02:30N 62°35' E 006°08'0 0.0
2018-Jun-14 02:01N 62°35' E 006°08'0 0.0
2018-Jun-14 01:30N 62°35' E 006°08'0 0.0
2018-Jun-14 01:00N 62°35' E 006°08'0 0.0
2018-Jun-14 00:30N 62°35' E 006°08'0 0.0
2018-Jun-14 00:00N 62°35' E 006°08'0 0.0
2018-Jun-13 23:30N 62°35' E 006°08'0 0.0
2018-Jun-13 23:00N 62°35' E 006°08'0 0.0
2018-Jun-13 22:30N 62°35' E 006°08'0 0.0
2018-Jun-13 22:00N 62°35' E 006°08'0 0.0
2018-Jun-13 21:30N 62°35' E 006°08'0 0.0
2018-Jun-13 21:00N 62°35' E 006°08'0 0.0
2018-Jun-13 20:30N 62°35' E 006°08'0 0.0
2018-Jun-13 20:00N 62°35' E 006°08'0 0.0
2018-Jun-13 19:31N 62°35' E 006°08'0 0.0
2018-Jun-13 19:00N 62°35' E 006°08'0 0.0
2018-Jun-13 18:30N 62°35' E 006°08'0 0.0
2018-Jun-13 18:00N 62°35' E 006°08'0 0.0
2018-Jun-13 17:30N 62°35' E 006°08'0 0.0
2018-Jun-13 17:00N 62°35' E 006°08'0 0.0
2018-Jun-13 16:30N 62°35' E 006°08'0 0.0
2018-Jun-13 16:00N 62°35' E 006°08'0 0.0
2018-Jun-13 15:31N 62°35' E 006°08'0 0.0
2018-Jun-13 15:00N 62°35' E 006°08'0 0.0
2018-Jun-13 14:30N 62°35' E 006°08'0 0.0
2018-Jun-13 14:00N 62°35' E 006°08'0 0.0
2018-Jun-13 13:30N 62°35' E 006°08'0 0.0
2018-Jun-13 13:00N 62°35' E 006°08'0 0.0
2018-Jun-13 12:30N 62°35' E 006°08'0 0.0
2018-Jun-13 12:00N 62°35' E 006°08'0 0.0
2018-Jun-13 11:30N 62°35' E 006°08'0 0.0
2018-Jun-13 11:00N 62°35' E 006°08'0 0.0
2018-Jun-13 10:30N 62°35' E 006°08'0 0.0
2018-Jun-13 10:00N 62°35' E 006°08'0 0.0
2018-Jun-13 09:30N 62°35' E 006°08'0 0.0
2018-Jun-13 09:00N 62°35' E 006°08'0 0.0
2018-Jun-13 08:30N 62°35' E 006°08'0 0.0
2018-Jun-13 08:00N 62°35' E 006°08'0 0.0
2018-Jun-13 07:30N 62°35' E 006°08'0 0.0
2018-Jun-13 07:00N 62°35' E 006°08'0 0.0
2018-Jun-13 06:30N 62°35' E 006°08'0 0.0
2018-Jun-13 06:00N 62°35' E 006°08'0 0.0
2018-Jun-13 05:30N 62°35' E 006°08'0 0.0
2018-Jun-13 04:59N 62°35' E 006°08'0 0.0
2018-Jun-13 04:30N 62°35' E 006°08'0 0.0
2018-Jun-13 03:59N 62°35' E 006°08'0 0.0
2018-Jun-13 03:29N 62°35' E 006°08'0 0.0
2018-Jun-13 03:00N 62°35' E 006°08'0 0.0
2018-Jun-13 02:29N 62°35' E 006°08'0 0.0
2018-Jun-13 01:59N 62°35' E 006°08'0 0.0
2018-Jun-13 01:30N 62°35' E 006°08'0 0.0
2018-Jun-13 01:00N 62°35' E 006°08'0 0.0
2018-Jun-13 00:30N 62°35' E 006°08'0 0.0
2018-Jun-12 23:59N 62°35' E 006°08'0 0.0
2018-Jun-12 23:29N 62°35' E 006°08'0 0.0
2018-Jun-12 23:00N 62°35' E 006°08'0 0.0
2018-Jun-12 22:30N 62°35' E 006°08'0 0.0
2018-Jun-12 22:00N 62°35' E 006°08'0 0.0
2018-Jun-12 21:30N 62°35' E 006°08'0 0.0
2018-Jun-12 21:00N 62°35' E 006°08'0 0.0
2018-Jun-12 20:30N 62°35' E 006°08'0 0.0
2018-Jun-12 20:00N 62°35' E 006°08'0 0.0
2018-Jun-12 19:30N 62°35' E 006°08'0 0.0
2018-Jun-12 19:00N 62°35' E 006°08'0 0.0
2018-Jun-12 18:30N 62°35' E 006°08'0 0.0
2018-Jun-12 18:00N 62°35' E 006°08'0 0.0
2018-Jun-12 17:30N 62°35' E 006°08'3 5.6
2018-Jun-12 17:00N 62°32' E 006°09'3 6.7
2018-Jun-12 16:29N 62°29' E 006°13'1 2.3
2018-Jun-12 16:00N 62°29' E 006°15'0 0.0
2018-Jun-12 15:30N 62°29' E 006°15'0 0.0
2018-Jun-12 15:00N 62°29' E 006°15'2 3.9
2018-Jun-12 14:29N 62°29' E 006°11'4 7.3
2018-Jun-12 14:00N 62°27' E 006°05'4 8.7
2018-Jun-12 13:30N 62°27' E 006°15'0 1.0
2018-Jun-12 13:00N 62°26' E 006°15'2 3.9
2018-Jun-12 12:30N 62°27' E 006°11'4 8.0
2018-Jun-12 12:00N 62°26' E 006°03'4 9.0
2018-Jun-12 11:30N 62°21' E 006°05'0 0.9
2018-Jun-12 11:00N 62°21' E 006°05'0 0.2
2018-Jun-12 10:29N 62°21' E 006°05'4 7.9
2018-Jun-12 09:59N 62°25' E 006°03'4 9.2
2018-Jun-12 09:30N 62°29' E 006°07'4 8.7
2018-Jun-12 09:00N 62°33' E 006°09'2 3.1
2018-Jun-12 08:30N 62°35' E 006°08'0 0.0
2018-Jun-12 08:00N 62°35' E 006°08'0 0.0
2018-Jun-12 07:30N 62°35' E 006°08'0 0.0
2018-Jun-12 07:00N 62°35' E 006°08'0 0.0
2018-Jun-12 06:30N 62°35' E 006°08'0 0.0
2018-Jun-12 06:00N 62°35' E 006°08'0 0.0
2018-Jun-12 05:30N 62°35' E 006°08'0 0.0
2018-Jun-12 05:00N 62°35' E 006°08'0 0.0
2018-Jun-12 04:30N 62°35' E 006°08'0 0.0
2018-Jun-12 03:59N 62°35' E 006°08'0 0.0
2018-Jun-12 03:30N 62°35' E 006°08'0 0.0
2018-Jun-12 03:00N 62°35' E 006°08'0 0.0
2018-Jun-12 02:30N 62°35' E 006°08'0 0.0
2018-Jun-12 02:00N 62°35' E 006°08'0 0.0
2018-Jun-12 01:30N 62°35' E 006°08'0 0.0
2018-Jun-12 01:00N 62°35' E 006°08'0 0.0
2018-Jun-12 00:30N 62°35' E 006°08'0 0.0
2018-Jun-12 00:00N 62°35' E 006°08'0 0.0
2018-Jun-11 23:30N 62°35' E 006°08'0 0.0
2018-Jun-11 23:00N 62°35' E 006°08'0 0.0
2018-Jun-11 22:30N 62°35' E 006°08'0 0.0
2018-Jun-11 22:00N 62°35' E 006°08'0 0.0
2018-Jun-11 21:30N 62°35' E 006°08'0 0.0
2018-Jun-11 21:00N 62°35' E 006°08'0 0.0
2018-Jun-11 20:30N 62°35' E 006°08'0 0.0
2018-Jun-11 20:00N 62°35' E 006°08'0 0.0
2018-Jun-11 19:30N 62°35' E 006°08'0 0.0
2018-Jun-11 19:00N 62°35' E 006°08'0 0.0
2018-Jun-11 18:28N 62°35' E 006°08'0 0.0
2018-Jun-11 18:00N 62°35' E 006°08'0 0.0
2018-Jun-11 17:29N 62°35' E 006°08'0 0.0
2018-Jun-11 16:59N 62°35' E 006°08'0 0.0
2018-Jun-11 16:30N 62°35' E 006°08'0 0.0
2018-Jun-11 16:00N 62°35' E 006°08'0 0.0
2018-Jun-11 15:29N 62°35' E 006°08'0 0.0
2018-Jun-11 15:00N 62°35' E 006°08'0 0.0
2018-Jun-11 14:29N 62°35' E 006°08'0 0.0
2018-Jun-11 13:59N 62°35' E 006°08'0 0.0
2018-Jun-11 13:30N 62°35' E 006°08'0 0.0
2018-Jun-11 12:59N 62°35' E 006°08'0 0.0
2018-Jun-11 12:29N 62°35' E 006°08'0 0.0
2018-Jun-11 12:00N 62°35' E 006°08'0 0.0
2018-Jun-11 11:29N 62°35' E 006°08'0 0.0
2018-Jun-11 11:00N 62°35' E 006°08'0 0.0
2018-Jun-11 10:30N 62°35' E 006°08'0 0.0
2018-Jun-11 09:59N 62°35' E 006°08'0 0.0
2018-Jun-11 09:30N 62°35' E 006°08'0 0.0
2018-Jun-11 09:00N 62°35' E 006°08'0 0.0
2018-Jun-11 08:30N 62°35' E 006°08'0 0.0
2018-Jun-11 08:00N 62°35' E 006°08'0 0.0
2018-Jun-11 07:30N 62°35' E 006°08'0 0.0
2018-Jun-11 07:00N 62°35' E 006°08'0 0.0
2018-Jun-11 06:30N 62°35' E 006°08'0 0.0
2018-Jun-11 06:00N 62°35' E 006°08'0 0.0
2018-Jun-11 05:27N 62°35' E 006°08'0 0.0
2018-Jun-11 05:00N 62°35' E 006°08'0 0.0
2018-Jun-11 04:25N 62°35' E 006°08'0 0.0
2018-Jun-11 04:00N 62°35' E 006°08'0 0.0
2018-Jun-11 03:30N 62°35' E 006°08'0 0.0
2018-Jun-11 03:00N 62°35' E 006°08'0 0.0
2018-Jun-11 02:30N 62°35' E 006°08'0 0.0
2018-Jun-11 02:00N 62°35' E 006°08'0 0.0
2018-Jun-11 01:30N 62°35' E 006°08'0 0.0
2018-Jun-11 01:00N 62°35' E 006°08'0 0.0
2018-Jun-11 00:30N 62°35' E 006°08'0 0.0
2018-Jun-11 00:00N 62°35' E 006°08'0 0.0
2018-Jun-10 23:30N 62°35' E 006°08'0 0.0
2018-Jun-10 23:00N 62°35' E 006°08'0 0.0
2018-Jun-10 22:30N 62°35' E 006°08'0 0.0
2018-Jun-10 22:00N 62°35' E 006°08'0 0.0
2018-Jun-10 21:30N 62°35' E 006°08'0 0.0
2018-Jun-10 21:00N 62°35' E 006°08'0 0.0
2018-Jun-10 20:30N 62°35' E 006°08'0 0.0
2018-Jun-10 20:00N 62°35' E 006°08'0 0.0
2018-Jun-10 19:30N 62°35' E 006°08'0 0.0
2018-Jun-10 19:00N 62°35' E 006°08'0 0.0
2018-Jun-10 18:30N 62°35' E 006°08'0 0.0
2018-Jun-10 18:00N 62°35' E 006°08'0 0.0
2018-Jun-10 17:30N 62°35' E 006°08'0 0.0
2018-Jun-10 17:00N 62°35' E 006°08'0 0.0
2018-Jun-10 16:30N 62°35' E 006°08'0 0.0
2018-Jun-10 16:00N 62°35' E 006°08'0 0.0
2018-Jun-10 15:30N 62°35' E 006°08'0 0.0
2018-Jun-10 15:00N 62°35' E 006°08'0 0.0
2018-Jun-10 14:00N 62°35' E 006°08'0 0.0
2018-Jun-10 13:30N 62°35' E 006°08'0 0.0
2018-Jun-10 13:00N 62°35' E 006°08'0 0.0
2018-Jun-10 12:30N 62°35' E 006°08'0 0.0
2018-Jun-10 12:00N 62°35' E 006°08'0 0.0
2018-Jun-10 11:30N 62°35' E 006°08'0 0.0
2018-Jun-10 11:00N 62°35' E 006°08'0 0.0
2018-Jun-10 10:30N 62°35' E 006°08'0 0.0
2018-Jun-10 10:00N 62°35' E 006°08'0 0.0
2018-Jun-10 09:30N 62°35' E 006°08'0 0.0
2018-Jun-10 09:00N 62°35' E 006°08'0 0.0
2018-Jun-10 08:30N 62°35' E 006°08'0 0.0
2018-Jun-10 08:00N 62°35' E 006°08'0 0.0
2018-Jun-10 07:29N 62°35' E 006°08'0 0.0
2018-Jun-10 07:00N 62°35' E 006°08'0 0.0
2018-Jun-10 06:29N 62°35' E 006°08'0 0.0
2018-Jun-10 06:00N 62°35' E 006°08'0 0.0
2018-Jun-10 05:29N 62°35' E 006°08'0 0.0
2018-Jun-10 05:00N 62°35' E 006°08'0 0.0
2018-Jun-10 04:29N 62°35' E 006°08'0 0.0
2018-Jun-10 04:00N 62°35' E 006°08'0 0.0
2018-Jun-10 03:30N 62°35' E 006°08'0 0.0
2018-Jun-10 03:00N 62°35' E 006°08'0 0.0
2018-Jun-10 02:30N 62°35' E 006°08'0 0.0
2018-Jun-10 01:59N 62°35' E 006°08'0 0.0
2018-Jun-10 01:30N 62°35' E 006°08'0 0.0
2018-Jun-10 00:59N 62°35' E 006°08'0 0.0
2018-Jun-10 00:30N 62°35' E 006°08'0 0.0
2018-Jun-10 00:00N 62°35' E 006°08'0 0.0
2018-Jun-09 23:30N 62°35' E 006°08'0 0.0
2018-Jun-09 23:00N 62°35' E 006°08'0 0.0
2018-Jun-09 22:30N 62°35' E 006°08'0 0.0
2018-Jun-09 21:59N 62°35' E 006°08'0 0.0
2018-Jun-09 21:30N 62°35' E 006°08'0 0.0
2018-Jun-09 21:00N 62°35' E 006°08'0 0.0
2018-Jun-09 20:30N 62°35' E 006°08'0 0.0
2018-Jun-09 19:59N 62°35' E 006°08'0 0.0
2018-Jun-09 19:30N 62°35' E 006°08'0 0.0
2018-Jun-09 19:00N 62°35' E 006°08'0 0.0
2018-Jun-09 18:30N 62°35' E 006°08'0 0.0
2018-Jun-09 17:59N 62°35' E 006°08'0 0.0
2018-Jun-09 17:30N 62°35' E 006°08'0 0.0
2018-Jun-09 17:00N 62°35' E 006°08'0 0.0
2018-Jun-09 16:30N 62°35' E 006°08'0 0.0
2018-Jun-09 15:55N 62°35' E 006°08'0 0.0
2018-Jun-09 15:00N 62°35' E 006°08'0 0.0
2018-Jun-09 14:30N 62°35' E 006°08'0 0.0
2018-Jun-09 14:00N 62°35' E 006°08'0 0.0
2018-Jun-09 13:30N 62°35' E 006°08'0 0.0
2018-Jun-09 12:59N 62°35' E 006°08'0 0.0
2018-Jun-09 12:30N 62°35' E 006°08'0 0.0
2018-Jun-09 11:59N 62°35' E 006°08'0 0.0
2018-Jun-09 11:30N 62°35' E 006°08'0 0.0
2018-Jun-09 11:00N 62°35' E 006°08'0 0.0
2018-Jun-09 10:30N 62°35' E 006°08'0 0.0
2018-Jun-09 10:00N 62°35' E 006°08'0 0.0
2018-Jun-09 09:30N 62°35' E 006°08'0 0.0
2018-Jun-09 08:59N 62°35' E 006°08'0 0.0
2018-Jun-09 08:30N 62°35' E 006°08'0 0.0
2018-Jun-09 08:00N 62°35' E 006°08'0 0.0
2018-Jun-09 07:30N 62°35' E 006°08'0 0.0
2018-Jun-09 06:59N 62°35' E 006°08'0 0.0
2018-Jun-09 06:30N 62°35' E 006°08'0 0.0
2018-Jun-09 06:00N 62°35' E 006°08'0 0.0
2018-Jun-09 05:29N 62°35' E 006°08'0 0.0
2018-Jun-09 05:01N 62°35' E 006°08'0 0.0
2018-Jun-09 04:30N 62°35' E 006°08'0 0.0
2018-Jun-09 04:00N 62°35' E 006°08'0 0.0
2018-Jun-09 03:30N 62°35' E 006°08'0 0.0
2018-Jun-09 03:00N 62°35' E 006°08'0 0.0
2018-Jun-09 02:30N 62°35' E 006°08'0 0.0
2018-Jun-09 01:59N 62°35' E 006°08'0 0.0
2018-Jun-09 01:30N 62°35' E 006°08'0 0.0
2018-Jun-09 01:00N 62°35' E 006°08'0 0.0
2018-Jun-09 00:30N 62°35' E 006°08'0 0.0
2018-Jun-09 00:00N 62°35' E 006°08'  

Dump ship's entire track history